sensor_id;sensor_type;location;lat;lon;timestamp;temperature;humidity
20380;DHT22;10349;48.666;8.948;2024-01-27T00:01:13;1.70;99.90
20380;DHT22;10349;48.666;8.948;2024-01-27T00:03:39;1.60;99.90
20380;DHT22;10349;48.666;8.948;2024-01-27T00:06:05;1.50;99.90
20380;DHT22;10349;48.666;8.948;2024-01-27T00:08:30;1.40;99.90
20380;DHT22;10349;48.666;8.948;2024-01-27T00:10:56;1.30;99.90
20380;DHT22;10349;48.666;8.948;2024-01-27T00:13:22;1.30;99.90
20380;DHT22;10349;48.666;8.948;2024-01-27T00:15:47;1.30;99.90
20380;DHT22;10349;48.666;8.948;2024-01-27T00:18:14;1.30;99.90
20380;DHT22;10349;48.666;8.948;2024-01-27T00:20:40;1.20;99.90
20380;DHT22;10349;48.666;8.948;2024-01-27T00:23:06;1.20;99.90
20380;DHT22;10349;48.666;8.948;2024-01-27T00:25:31;1.20;99.90
20380;DHT22;10349;48.666;8.948;2024-01-27T00:27:57;1.10;99.90
20380;DHT22;10349;48.666;8.948;2024-01-27T00:30:23;1.10;99.90
20380;DHT22;10349;48.666;8.948;2024-01-27T00:32:48;1.10;99.90
20380;DHT22;10349;48.666;8.948;2024-01-27T00:35:14;1.10;99.90
20380;DHT22;10349;48.666;8.948;2024-01-27T00:37:42;1.00;99.90
20380;DHT22;10349;48.666;8.948;2024-01-27T00:40:09;1.00;99.90
20380;DHT22;10349;48.666;8.948;2024-01-27T00:42:35;0.90;99.90
20380;DHT22;10349;48.666;8.948;2024-01-27T00:45:01;0.90;99.90
20380;DHT22;10349;48.666;8.948;2024-01-27T00:47:26;0.90;99.90
20380;DHT22;10349;48.666;8.948;2024-01-27T00:49:52;0.80;99.90
20380;DHT22;10349;48.666;8.948;2024-01-27T00:52:19;0.80;99.90
20380;DHT22;10349;48.666;8.948;2024-01-27T00:54:45;0.80;99.90
20380;DHT22;10349;48.666;8.948;2024-01-27T00:57:10;0.80;99.90
20380;DHT22;10349;48.666;8.948;2024-01-27T00:59:36;0.70;99.90
20380;DHT22;10349;48.666;8.948;2024-01-27T01:02:02;0.60;99.90
20380;DHT22;10349;48.666;8.948;2024-01-27T01:04:28;0.60;99.90
20380;DHT22;10349;48.666;8.948;2024-01-27T01:06:53;0.60;99.90
20380;DHT22;10349;48.666;8.948;2024-01-27T01:09:19;0.50;99.90
20380;DHT22;10349;48.666;8.948;2024-01-27T01:11:44;0.40;99.90
20380;DHT22;10349;48.666;8.948;2024-01-27T01:14:10;0.40;99.90
20380;DHT22;10349;48.666;8.948;2024-01-27T01:16:36;0.40;99.90
20380;DHT22;10349;48.666;8.948;2024-01-27T01:19:01;0.30;99.90
20380;DHT22;10349;48.666;8.948;2024-01-27T01:21:27;0.30;99.90
20380;DHT22;10349;48.666;8.948;2024-01-27T01:23:53;0.30;99.90
20380;DHT22;10349;48.666;8.948;2024-01-27T01:26:19;0.30;99.90
20380;DHT22;10349;48.666;8.948;2024-01-27T01:28:45;0.20;99.90
20380;DHT22;10349;48.666;8.948;2024-01-27T01:31:10;0.20;99.90
20380;DHT22;10349;48.666;8.948;2024-01-27T01:33:36;0.20;99.90
20380;DHT22;10349;48.666;8.948;2024-01-27T01:36:01;0.20;99.90
20380;DHT22;10349;48.666;8.948;2024-01-27T01:38:27;0.10;99.90
20380;DHT22;10349;48.666;8.948;2024-01-27T01:40:52;0.00;99.90
20380;DHT22;10349;48.666;8.948;2024-01-27T01:43:18;0.00;99.90
20380;DHT22;10349;48.666;8.948;2024-01-27T01:45:44;0.00;99.90
20380;DHT22;10349;48.666;8.948;2024-01-27T01:48:09;0.00;99.90
20380;DHT22;10349;48.666;8.948;2024-01-27T01:50:35;-0.10;99.90
20380;DHT22;10349;48.666;8.948;2024-01-27T01:53:01;-0.10;99.90
20380;DHT22;10349;48.666;8.948;2024-01-27T01:55:27;-0.10;99.90
20380;DHT22;10349;48.666;8.948;2024-01-27T01:57:52;-0.10;99.90
20380;DHT22;10349;48.666;8.948;2024-01-27T02:00:19;-0.20;99.90
20380;DHT22;10349;48.666;8.948;2024-01-27T02:02:45;-0.20;99.90
20380;DHT22;10349;48.666;8.948;2024-01-27T02:05:12;-0.30;99.90
20380;DHT22;10349;48.666;8.948;2024-01-27T02:07:38;-0.30;99.90
20380;DHT22;10349;48.666;8.948;2024-01-27T02:10:05;-0.30;99.90
20380;DHT22;10349;48.666;8.948;2024-01-27T02:12:31;-0.30;99.90
20380;DHT22;10349;48.666;8.948;2024-01-27T02:14:57;-0.30;99.90
20380;DHT22;10349;48.666;8.948;2024-01-27T02:17:22;-0.30;99.90
20380;DHT22;10349;48.666;8.948;2024-01-27T02:19:48;-0.40;99.90
20380;DHT22;10349;48.666;8.948;2024-01-27T02:22:14;-0.30;99.90
20380;DHT22;10349;48.666;8.948;2024-01-27T02:24:39;-0.40;99.90
20380;DHT22;10349;48.666;8.948;2024-01-27T02:27:05;-0.40;99.90
20380;DHT22;10349;48.666;8.948;2024-01-27T02:29:30;-0.40;99.90
20380;DHT22;10349;48.666;8.948;2024-01-27T02:31:56;-0.40;99.90
20380;DHT22;10349;48.666;8.948;2024-01-27T02:34:22;-0.40;99.90
20380;DHT22;10349;48.666;8.948;2024-01-27T02:36:47;-0.40;99.90
20380;DHT22;10349;48.666;8.948;2024-01-27T02:39:13;-0.50;99.90
20380;DHT22;10349;48.666;8.948;2024-01-27T02:41:38;-0.50;99.90
20380;DHT22;10349;48.666;8.948;2024-01-27T02:44:07;-0.50;99.90
20380;DHT22;10349;48.666;8.948;2024-01-27T02:46:33;-0.50;99.90
20380;DHT22;10349;48.666;8.948;2024-01-27T02:48:58;-0.50;99.90
20380;DHT22;10349;48.666;8.948;2024-01-27T02:51:24;-0.50;99.90
20380;DHT22;10349;48.666;8.948;2024-01-27T02:53:50;-0.60;99.90
20380;DHT22;10349;48.666;8.948;2024-01-27T02:56:18;-0.60;99.90
20380;DHT22;10349;48.666;8.948;2024-01-27T02:58:44;-0.60;99.90
20380;DHT22;10349;48.666;8.948;2024-01-27T03:01:09;-0.60;99.90
20380;DHT22;10349;48.666;8.948;2024-01-27T03:03:35;-0.60;99.90
20380;DHT22;10349;48.666;8.948;2024-01-27T03:06:01;-0.70;99.90
20380;DHT22;10349;48.666;8.948;2024-01-27T03:08:26;-0.70;99.90
20380;DHT22;10349;48.666;8.948;2024-01-27T03:10:52;-0.70;99.90
20380;DHT22;10349;48.666;8.948;2024-01-27T03:13:18;-0.70;99.90
20380;DHT22;10349;48.666;8.948;2024-01-27T03:15:44;-0.70;99.90
20380;DHT22;10349;48.666;8.948;2024-01-27T03:18:10;-0.70;99.90
20380;DHT22;10349;48.666;8.948;2024-01-27T03:20:36;-0.70;99.90
20380;DHT22;10349;48.666;8.948;2024-01-27T03:23:01;-0.70;99.90
20380;DHT22;10349;48.666;8.948;2024-01-27T03:25:27;-0.70;99.90
20380;DHT22;10349;48.666;8.948;2024-01-27T03:27:53;-0.70;99.90
20380;DHT22;10349;48.666;8.948;2024-01-27T03:30:18;-0.80;99.90
20380;DHT22;10349;48.666;8.948;2024-01-27T03:32:44;-0.80;99.90
20380;DHT22;10349;48.666;8.948;2024-01-27T03:35:10;-0.80;99.90
20380;DHT22;10349;48.666;8.948;2024-01-27T03:37:36;-0.80;99.90
20380;DHT22;10349;48.666;8.948;2024-01-27T03:40:02;-0.90;99.90
20380;DHT22;10349;48.666;8.948;2024-01-27T03:42:27;-0.90;99.90
20380;DHT22;10349;48.666;8.948;2024-01-27T03:44:53;-0.90;99.90
20380;DHT22;10349;48.666;8.948;2024-01-27T03:47:19;-1.00;99.90
20380;DHT22;10349;48.666;8.948;2024-01-27T03:49:45;-1.00;99.90
20380;DHT22;10349;48.666;8.948;2024-01-27T03:52:11;-1.10;99.90
20380;DHT22;10349;48.666;8.948;2024-01-27T03:54:40;-1.10;99.90
20380;DHT22;10349;48.666;8.948;2024-01-27T03:57:05;-1.10;99.90
20380;DHT22;10349;48.666;8.948;2024-01-27T03:59:31;-1.10;99.90
20380;DHT22;10349;48.666;8.948;2024-01-27T04:01:57;-1.10;99.90
20380;DHT22;10349;48.666;8.948;2024-01-27T04:04:22;-1.10;99.90
20380;DHT22;10349;48.666;8.948;2024-01-27T04:06:49;-1.10;99.90
20380;DHT22;10349;48.666;8.948;2024-01-27T04:09:15;-1.20;99.90
20380;DHT22;10349;48.666;8.948;2024-01-27T04:11:41;-1.20;99.90
20380;DHT22;10349;48.666;8.948;2024-01-27T04:14:07;-1.20;99.90
20380;DHT22;10349;48.666;8.948;2024-01-27T04:16:33;-1.20;99.90
20380;DHT22;10349;48.666;8.948;2024-01-27T04:18:59;-1.20;99.90
20380;DHT22;10349;48.666;8.948;2024-01-27T04:21:24;-1.20;99.90
20380;DHT22;10349;48.666;8.948;2024-01-27T04:23:50;-1.20;99.90
20380;DHT22;10349;48.666;8.948;2024-01-27T04:26:15;-1.20;99.90
20380;DHT22;10349;48.666;8.948;2024-01-27T04:28:41;-1.30;99.90
20380;DHT22;10349;48.666;8.948;2024-01-27T04:31:07;-1.30;99.90
20380;DHT22;10349;48.666;8.948;2024-01-27T04:33:32;-1.40;99.90
20380;DHT22;10349;48.666;8.948;2024-01-27T04:35:58;-1.40;99.90
20380;DHT22;10349;48.666;8.948;2024-01-27T04:38:24;-1.50;99.90
20380;DHT22;10349;48.666;8.948;2024-01-27T04:40:51;-1.50;99.90
20380;DHT22;10349;48.666;8.948;2024-01-27T04:43:18;-1.50;99.90
20380;DHT22;10349;48.666;8.948;2024-01-27T04:45:45;-1.50;99.90
20380;DHT22;10349;48.666;8.948;2024-01-27T04:48:11;-1.50;99.90
20380;DHT22;10349;48.666;8.948;2024-01-27T04:50:36;-1.50;99.90
20380;DHT22;10349;48.666;8.948;2024-01-27T04:53:02;-1.60;99.90
20380;DHT22;10349;48.666;8.948;2024-01-27T04:55:28;-1.70;99.90
20380;DHT22;10349;48.666;8.948;2024-01-27T04:57:53;-1.70;99.90
20380;DHT22;10349;48.666;8.948;2024-01-27T05:00:20;-1.60;99.90
20380;DHT22;10349;48.666;8.948;2024-01-27T05:02:46;-1.70;99.90
20380;DHT22;10349;48.666;8.948;2024-01-27T05:05:12;-1.80;99.90
20380;DHT22;10349;48.666;8.948;2024-01-27T05:07:38;-1.70;99.90
20380;DHT22;10349;48.666;8.948;2024-01-27T05:10:05;-1.80;99.90
20380;DHT22;10349;48.666;8.948;2024-01-27T05:12:30;-1.80;99.90
20380;DHT22;10349;48.666;8.948;2024-01-27T05:14:56;-1.80;99.90
20380;DHT22;10349;48.666;8.948;2024-01-27T05:17:22;-1.80;99.90
20380;DHT22;10349;48.666;8.948;2024-01-27T05:19:49;-1.80;99.90
20380;DHT22;10349;48.666;8.948;2024-01-27T05:22:14;-1.70;99.90
20380;DHT22;10349;48.666;8.948;2024-01-27T05:24:40;-1.80;99.90
20380;DHT22;10349;48.666;8.948;2024-01-27T05:27:05;-1.80;99.90
20380;DHT22;10349;48.666;8.948;2024-01-27T05:29:31;-1.90;99.90
20380;DHT22;10349;48.666;8.948;2024-01-27T05:31:57;-1.90;99.90
20380;DHT22;10349;48.666;8.948;2024-01-27T05:34:22;-1.90;99.90
20380;DHT22;10349;48.666;8.948;2024-01-27T05:36:48;-1.90;99.90
20380;DHT22;10349;48.666;8.948;2024-01-27T05:39:14;-1.90;99.90
20380;DHT22;10349;48.666;8.948;2024-01-27T05:41:39;-1.90;99.90
20380;DHT22;10349;48.666;8.948;2024-01-27T05:44:05;-1.80;99.90
20380;DHT22;10349;48.666;8.948;2024-01-27T05:46:31;-1.90;99.90
20380;DHT22;10349;48.666;8.948;2024-01-27T05:48:56;-1.90;99.90
20380;DHT22;10349;48.666;8.948;2024-01-27T05:51:27;-1.90;99.90
20380;DHT22;10349;48.666;8.948;2024-01-27T05:53:52;-1.90;99.90
20380;DHT22;10349;48.666;8.948;2024-01-27T05:56:18;-1.90;99.90
20380;DHT22;10349;48.666;8.948;2024-01-27T05:58:47;-2.00;99.90
20380;DHT22;10349;48.666;8.948;2024-01-27T06:01:13;-2.00;99.90
20380;DHT22;10349;48.666;8.948;2024-01-27T06:03:41;-2.00;99.90
20380;DHT22;10349;48.666;8.948;2024-01-27T06:06:07;-2.00;99.90
20380;DHT22;10349;48.666;8.948;2024-01-27T06:08:33;-2.00;99.90
20380;DHT22;10349;48.666;8.948;2024-01-27T06:10:58;-2.00;99.90
20380;DHT22;10349;48.666;8.948;2024-01-27T06:13:24;-2.00;99.90
20380;DHT22;10349;48.666;8.948;2024-01-27T06:15:50;-2.10;99.90
20380;DHT22;10349;48.666;8.948;2024-01-27T06:18:16;-2.00;99.90
20380;DHT22;10349;48.666;8.948;2024-01-27T06:20:41;-2.00;99.90
20380;DHT22;10349;48.666;8.948;2024-01-27T06:23:08;-2.10;99.90
20380;DHT22;10349;48.666;8.948;2024-01-27T06:25:34;-2.10;99.90
20380;DHT22;10349;48.666;8.948;2024-01-27T06:28:00;-2.10;99.90
20380;DHT22;10349;48.666;8.948;2024-01-27T06:30:25;-2.10;99.90
20380;DHT22;10349;48.666;8.948;2024-01-27T06:32:51;-2.10;99.90
20380;DHT22;10349;48.666;8.948;2024-01-27T06:35:17;-2.20;99.90
20380;DHT22;10349;48.666;8.948;2024-01-27T06:37:43;-2.20;99.90
20380;DHT22;10349;48.666;8.948;2024-01-27T06:40:09;-2.20;99.90
20380;DHT22;10349;48.666;8.948;2024-01-27T06:42:35;-2.30;99.90
20380;DHT22;10349;48.666;8.948;2024-01-27T06:45:01;-2.30;99.90
20380;DHT22;10349;48.666;8.948;2024-01-27T06:47:27;-2.40;99.90
20380;DHT22;10349;48.666;8.948;2024-01-27T06:49:52;-2.30;99.90
20380;DHT22;10349;48.666;8.948;2024-01-27T06:52:18;-2.40;99.90
20380;DHT22;10349;48.666;8.948;2024-01-27T06:54:44;-2.30;99.90
20380;DHT22;10349;48.666;8.948;2024-01-27T06:59:50;-2.40;99.90
20380;DHT22;10349;48.666;8.948;2024-01-27T07:02:27;-2.40;99.90
20380;DHT22;10349;48.666;8.948;2024-01-27T07:04:55;-2.50;99.90
20380;DHT22;10349;48.666;8.948;2024-01-27T07:07:26;-2.50;99.90
20380;DHT22;10349;48.666;8.948;2024-01-27T07:09:54;-2.60;99.90
20380;DHT22;10349;48.666;8.948;2024-01-27T07:12:19;-2.70;99.90
20380;DHT22;10349;48.666;8.948;2024-01-27T07:14:45;-2.70;99.90
20380;DHT22;10349;48.666;8.948;2024-01-27T07:17:11;-2.80;99.90
20380;DHT22;10349;48.666;8.948;2024-01-27T07:19:36;-2.70;99.90
20380;DHT22;10349;48.666;8.948;2024-01-27T07:22:02;-2.80;99.90
20380;DHT22;10349;48.666;8.948;2024-01-27T07:24:29;-2.70;99.90
20380;DHT22;10349;48.666;8.948;2024-01-27T07:26:55;-2.70;99.90
20380;DHT22;10349;48.666;8.948;2024-01-27T07:29:21;-2.70;99.90
20380;DHT22;10349;48.666;8.948;2024-01-27T07:31:47;-2.60;99.90
20380;DHT22;10349;48.666;8.948;2024-01-27T07:34:13;-2.60;99.90
20380;DHT22;10349;48.666;8.948;2024-01-27T07:36:38;-2.50;99.90
20380;DHT22;10349;48.666;8.948;2024-01-27T07:39:04;-2.50;99.90
20380;DHT22;10349;48.666;8.948;2024-01-27T07:41:31;-2.50;99.90
20380;DHT22;10349;48.666;8.948;2024-01-27T07:43:56;-2.50;99.90
20380;DHT22;10349;48.666;8.948;2024-01-27T07:46:22;-2.50;99.90
20380;DHT22;10349;48.666;8.948;2024-01-27T07:48:48;-2.50;99.90
20380;DHT22;10349;48.666;8.948;2024-01-27T07:51:15;-2.50;99.90
20380;DHT22;10349;48.666;8.948;2024-01-27T07:53:41;-2.50;99.90
20380;DHT22;10349;48.666;8.948;2024-01-27T07:56:07;-2.50;99.90
20380;DHT22;10349;48.666;8.948;2024-01-27T07:58:33;-2.40;99.90
20380;DHT22;10349;48.666;8.948;2024-01-27T08:00:59;-2.40;99.90
20380;DHT22;10349;48.666;8.948;2024-01-27T08:03:25;-2.30;99.90
20380;DHT22;10349;48.666;8.948;2024-01-27T08:05:51;-2.20;99.90
20380;DHT22;10349;48.666;8.948;2024-01-27T08:08:16;-2.20;99.90
20380;DHT22;10349;48.666;8.948;2024-01-27T08:10:42;-2.10;99.90
20380;DHT22;10349;48.666;8.948;2024-01-27T08:13:07;-2.10;99.90
20380;DHT22;10349;48.666;8.948;2024-01-27T08:15:33;-2.00;99.90
20380;DHT22;10349;48.666;8.948;2024-01-27T08:17:59;-2.00;99.90
20380;DHT22;10349;48.666;8.948;2024-01-27T08:20:24;-1.80;99.90
20380;DHT22;10349;48.666;8.948;2024-01-27T08:22:50;-1.90;99.90
20380;DHT22;10349;48.666;8.948;2024-01-27T08:25:17;-1.80;99.90
20380;DHT22;10349;48.666;8.948;2024-01-27T08:27:43;-1.70;99.90
20380;DHT22;10349;48.666;8.948;2024-01-27T08:30:09;-1.70;99.90
20380;DHT22;10349;48.666;8.948;2024-01-27T08:32:35;-1.70;99.90
20380;DHT22;10349;48.666;8.948;2024-01-27T08:35:01;-1.60;99.90
20380;DHT22;10349;48.666;8.948;2024-01-27T08:37:27;-1.60;99.90
20380;DHT22;10349;48.666;8.948;2024-01-27T08:39:52;-1.50;99.90
20380;DHT22;10349;48.666;8.948;2024-01-27T08:42:18;-1.50;99.90
20380;DHT22;10349;48.666;8.948;2024-01-27T08:44:44;-1.50;99.90
20380;DHT22;10349;48.666;8.948;2024-01-27T08:47:09;-1.40;99.90
20380;DHT22;10349;48.666;8.948;2024-01-27T08:49:36;-1.40;99.90
20380;DHT22;10349;48.666;8.948;2024-01-27T08:52:02;-1.30;99.90
20380;DHT22;10349;48.666;8.948;2024-01-27T08:54:28;-1.20;99.90
20380;DHT22;10349;48.666;8.948;2024-01-27T08:56:54;-1.20;99.90
20380;DHT22;10349;48.666;8.948;2024-01-27T08:59:20;-1.10;99.90
20380;DHT22;10349;48.666;8.948;2024-01-27T09:01:46;-1.10;99.90
20380;DHT22;10349;48.666;8.948;2024-01-27T09:04:11;-1.00;99.90
20380;DHT22;10349;48.666;8.948;2024-01-27T09:06:37;-0.90;99.90
20380;DHT22;10349;48.666;8.948;2024-01-27T09:09:03;-0.80;99.90
20380;DHT22;10349;48.666;8.948;2024-01-27T09:11:28;-0.70;99.90
20380;DHT22;10349;48.666;8.948;2024-01-27T09:13:56;-0.60;99.90
20380;DHT22;10349;48.666;8.948;2024-01-27T09:16:22;-0.50;99.90
20380;DHT22;10349;48.666;8.948;2024-01-27T09:18:47;-0.50;99.90
20380;DHT22;10349;48.666;8.948;2024-01-27T09:21:15;-0.40;99.90
20380;DHT22;10349;48.666;8.948;2024-01-27T09:23:46;-0.30;99.90
20380;DHT22;10349;48.666;8.948;2024-01-27T09:26:12;-0.20;99.90
20380;DHT22;10349;48.666;8.948;2024-01-27T09:28:39;-0.20;99.90
20380;DHT22;10349;48.666;8.948;2024-01-27T09:31:10;-0.20;99.90
20380;DHT22;10349;48.666;8.948;2024-01-27T09:33:36;-0.20;99.90
20380;DHT22;10349;48.666;8.948;2024-01-27T09:36:01;-0.20;99.90
20380;DHT22;10349;48.666;8.948;2024-01-27T09:38:28;-0.10;99.90
20380;DHT22;10349;48.666;8.948;2024-01-27T09:40:53;0.00;99.90
20380;DHT22;10349;48.666;8.948;2024-01-27T09:43:19;0.10;99.90
20380;DHT22;10349;48.666;8.948;2024-01-27T09:45:46;0.20;99.90
20380;DHT22;10349;48.666;8.948;2024-01-27T09:48:12;0.20;99.90
20380;DHT22;10349;48.666;8.948;2024-01-27T09:50:41;0.30;99.90
20380;DHT22;10349;48.666;8.948;2024-01-27T09:53:06;0.30;99.90
20380;DHT22;10349;48.666;8.948;2024-01-27T09:55:34;0.40;99.90
20380;DHT22;10349;48.666;8.948;2024-01-27T09:58:00;0.50;99.90
20380;DHT22;10349;48.666;8.948;2024-01-27T10:00:27;0.50;99.90
20380;DHT22;10349;48.666;8.948;2024-01-27T10:02:54;0.70;99.90
20380;DHT22;10349;48.666;8.948;2024-01-27T10:05:20;0.80;99.90
20380;DHT22;10349;48.666;8.948;2024-01-27T10:07:46;0.90;99.90
20380;DHT22;10349;48.666;8.948;2024-01-27T10:10:12;1.00;99.90
20380;DHT22;10349;48.666;8.948;2024-01-27T10:12:40;1.10;99.90
20380;DHT22;10349;48.666;8.948;2024-01-27T10:15:18;1.30;99.90
20380;DHT22;10349;48.666;8.948;2024-01-27T10:17:44;1.50;99.90
20380;DHT22;10349;48.666;8.948;2024-01-27T10:20:11;1.70;99.90
20380;DHT22;10349;48.666;8.948;2024-01-27T10:22:41;1.90;99.90
20380;DHT22;10349;48.666;8.948;2024-01-27T10:25:08;2.00;99.90
20380;DHT22;10349;48.666;8.948;2024-01-27T10:27:35;2.20;99.90
20380;DHT22;10349;48.666;8.948;2024-01-27T10:30:01;2.30;99.90
20380;DHT22;10349;48.666;8.948;2024-01-27T10:32:28;2.50;99.90
20380;DHT22;10349;48.666;8.948;2024-01-27T10:35:07;2.60;99.90
20380;DHT22;10349;48.666;8.948;2024-01-27T10:37:36;2.90;99.90
20380;DHT22;10349;48.666;8.948;2024-01-27T10:40:06;3.10;99.90
20380;DHT22;10349;48.666;8.948;2024-01-27T10:42:36;3.30;99.90
20380;DHT22;10349;48.666;8.948;2024-01-27T10:45:03;3.50;99.90
20380;DHT22;10349;48.666;8.948;2024-01-27T10:47:32;3.60;99.90
20380;DHT22;10349;48.666;8.948;2024-01-27T10:50:01;3.90;99.90
20380;DHT22;10349;48.666;8.948;2024-01-27T10:52:32;4.00;99.90
20380;DHT22;10349;48.666;8.948;2024-01-27T10:55:02;4.20;99.90
20380;DHT22;10349;48.666;8.948;2024-01-27T10:57:33;4.30;99.90
20380;DHT22;10349;48.666;8.948;2024-01-27T11:00:00;4.40;99.90
20380;DHT22;10349;48.666;8.948;2024-01-27T11:02:32;4.50;99.90
20380;DHT22;10349;48.666;8.948;2024-01-27T11:05:00;4.70;99.90
20380;DHT22;10349;48.666;8.948;2024-01-27T11:07:28;4.90;99.90
20380;DHT22;10349;48.666;8.948;2024-01-27T11:09:55;5.10;99.90
20380;DHT22;10349;48.666;8.948;2024-01-27T11:12:23;5.30;99.90
20380;DHT22;10349;48.666;8.948;2024-01-27T11:14:49;5.30;99.90
20380;DHT22;10349;48.666;8.948;2024-01-27T11:17:15;5.30;99.90
20380;DHT22;10349;48.666;8.948;2024-01-27T11:19:42;5.50;99.90
20380;DHT22;10349;48.666;8.948;2024-01-27T11:22:08;5.60;99.90
20380;DHT22;10349;48.666;8.948;2024-01-27T11:24:33;5.70;99.90
20380;DHT22;10349;48.666;8.948;2024-01-27T11:27:04;5.60;99.90
20380;DHT22;10349;48.666;8.948;2024-01-27T11:29:30;5.70;99.90
20380;DHT22;10349;48.666;8.948;2024-01-27T11:32:03;5.90;99.90
20380;DHT22;10349;48.666;8.948;2024-01-27T11:34:47;6.00;99.90
20380;DHT22;10349;48.666;8.948;2024-01-27T11:37:14;6.10;99.90
20380;DHT22;10349;48.666;8.948;2024-01-27T11:39:40;6.10;99.90
20380;DHT22;10349;48.666;8.948;2024-01-27T11:42:13;6.10;99.90
20380;DHT22;10349;48.666;8.948;2024-01-27T11:44:39;6.20;99.90
20380;DHT22;10349;48.666;8.948;2024-01-27T11:47:05;6.30;99.90
20380;DHT22;10349;48.666;8.948;2024-01-27T11:49:38;6.40;99.90
20380;DHT22;10349;48.666;8.948;2024-01-27T11:52:06;6.60;99.90
20380;DHT22;10349;48.666;8.948;2024-01-27T11:54:32;6.70;99.90
20380;DHT22;10349;48.666;8.948;2024-01-27T11:56:57;6.80;99.90
20380;DHT22;10349;48.666;8.948;2024-01-27T11:59:23;6.90;99.90
20380;DHT22;10349;48.666;8.948;2024-01-27T12:01:49;6.90;99.90
20380;DHT22;10349;48.666;8.948;2024-01-27T12:04:16;6.90;99.90
20380;DHT22;10349;48.666;8.948;2024-01-27T12:06:43;6.90;99.90
20380;DHT22;10349;48.666;8.948;2024-01-27T12:09:09;6.90;99.90
20380;DHT22;10349;48.666;8.948;2024-01-27T12:11:38;7.00;99.90
20380;DHT22;10349;48.666;8.948;2024-01-27T12:14:08;6.90;99.90
20380;DHT22;10349;48.666;8.948;2024-01-27T12:16:34;7.00;99.90
20380;DHT22;10349;48.666;8.948;2024-01-27T12:19:00;6.90;99.90
20380;DHT22;10349;48.666;8.948;2024-01-27T12:21:25;6.90;99.90
20380;DHT22;10349;48.666;8.948;2024-01-27T12:23:52;6.70;99.90
20380;DHT22;10349;48.666;8.948;2024-01-27T12:26:24;6.50;99.90
20380;DHT22;10349;48.666;8.948;2024-01-27T12:28:50;6.50;99.90
20380;DHT22;10349;48.666;8.948;2024-01-27T12:31:16;6.50;99.90
20380;DHT22;10349;48.666;8.948;2024-01-27T12:33:54;6.50;99.90
20380;DHT22;10349;48.666;8.948;2024-01-27T12:36:21;6.40;99.90
20380;DHT22;10349;48.666;8.948;2024-01-27T12:41:20;6.40;99.90
20380;DHT22;10349;48.666;8.948;2024-01-27T12:43:46;6.30;99.90
20380;DHT22;10349;48.666;8.948;2024-01-27T12:46:11;6.30;99.90
20380;DHT22;10349;48.666;8.948;2024-01-27T12:48:38;6.30;99.90
20380;DHT22;10349;48.666;8.948;2024-01-27T12:51:04;6.30;99.90
20380;DHT22;10349;48.666;8.948;2024-01-27T12:53:30;6.30;99.90
20380;DHT22;10349;48.666;8.948;2024-01-27T12:55:56;6.40;99.90
20380;DHT22;10349;48.666;8.948;2024-01-27T12:58:22;6.50;99.90
20380;DHT22;10349;48.666;8.948;2024-01-27T13:00:47;6.50;99.90
20380;DHT22;10349;48.666;8.948;2024-01-27T13:03:13;6.50;99.90
20380;DHT22;10349;48.666;8.948;2024-01-27T13:05:39;6.60;99.90
20380;DHT22;10349;48.666;8.948;2024-01-27T13:08:05;6.60;99.90
20380;DHT22;10349;48.666;8.948;2024-01-27T13:10:30;6.60;99.90
20380;DHT22;10349;48.666;8.948;2024-01-27T13:12:56;6.60;99.90
20380;DHT22;10349;48.666;8.948;2024-01-27T13:15:23;6.50;99.90
20380;DHT22;10349;48.666;8.948;2024-01-27T13:17:50;6.50;99.90
20380;DHT22;10349;48.666;8.948;2024-01-27T13:20:16;6.40;99.90
20380;DHT22;10349;48.666;8.948;2024-01-27T13:22:43;6.50;99.90
20380;DHT22;10349;48.666;8.948;2024-01-27T13:25:09;6.50;99.90
20380;DHT22;10349;48.666;8.948;2024-01-27T13:27:34;6.50;99.90
20380;DHT22;10349;48.666;8.948;2024-01-27T13:30:00;6.50;99.90
20380;DHT22;10349;48.666;8.948;2024-01-27T13:32:26;6.60;99.90
20380;DHT22;10349;48.666;8.948;2024-01-27T13:34:52;6.60;99.90
20380;DHT22;10349;48.666;8.948;2024-01-27T13:37:18;6.70;99.90
20380;DHT22;10349;48.666;8.948;2024-01-27T13:39:44;6.70;99.90
20380;DHT22;10349;48.666;8.948;2024-01-27T13:42:12;6.50;99.90
20380;DHT22;10349;48.666;8.948;2024-01-27T13:44:38;6.50;99.90
20380;DHT22;10349;48.666;8.948;2024-01-27T13:47:04;6.40;99.90
20380;DHT22;10349;48.666;8.948;2024-01-27T13:49:31;6.50;99.90
20380;DHT22;10349;48.666;8.948;2024-01-27T13:51:57;6.50;99.90
20380;DHT22;10349;48.666;8.948;2024-01-27T13:54:23;6.50;99.90
20380;DHT22;10349;48.666;8.948;2024-01-27T13:56:48;6.50;99.90
20380;DHT22;10349;48.666;8.948;2024-01-27T13:59:14;6.50;99.90
20380;DHT22;10349;48.666;8.948;2024-01-27T14:01:40;6.50;99.90
20380;DHT22;10349;48.666;8.948;2024-01-27T14:04:05;6.50;99.90
20380;DHT22;10349;48.666;8.948;2024-01-27T14:06:34;6.40;99.90
20380;DHT22;10349;48.666;8.948;2024-01-27T14:09:00;6.40;99.90
20380;DHT22;10349;48.666;8.948;2024-01-27T14:11:28;6.30;99.90
20380;DHT22;10349;48.666;8.948;2024-01-27T14:13:53;6.30;99.90
20380;DHT22;10349;48.666;8.948;2024-01-27T14:16:19;6.30;99.90
20380;DHT22;10349;48.666;8.948;2024-01-27T14:18:45;6.30;99.90
20380;DHT22;10349;48.666;8.948;2024-01-27T14:21:11;6.30;99.90
20380;DHT22;10349;48.666;8.948;2024-01-27T14:23:37;6.30;99.90
20380;DHT22;10349;48.666;8.948;2024-01-27T14:26:03;6.30;99.90
20380;DHT22;10349;48.666;8.948;2024-01-27T14:28:29;6.30;99.90
20380;DHT22;10349;48.666;8.948;2024-01-27T14:30:55;6.30;99.90
20380;DHT22;10349;48.666;8.948;2024-01-27T14:33:20;6.40;99.90
20380;DHT22;10349;48.666;8.948;2024-01-27T14:35:49;6.40;99.90
20380;DHT22;10349;48.666;8.948;2024-01-27T14:38:15;6.40;99.90
20380;DHT22;10349;48.666;8.948;2024-01-27T14:40:40;6.40;99.90
20380;DHT22;10349;48.666;8.948;2024-01-27T14:43:06;6.30;99.90
20380;DHT22;10349;48.666;8.948;2024-01-27T14:45:35;6.30;99.90
20380;DHT22;10349;48.666;8.948;2024-01-27T14:48:02;6.20;99.90
20380;DHT22;10349;48.666;8.948;2024-01-27T14:50:28;6.20;99.90
20380;DHT22;10349;48.666;8.948;2024-01-27T14:52:53;6.20;99.90
20380;DHT22;10349;48.666;8.948;2024-01-27T14:55:19;6.20;99.90
20380;DHT22;10349;48.666;8.948;2024-01-27T14:57:45;6.10;99.90
20380;DHT22;10349;48.666;8.948;2024-01-27T15:00:11;6.10;99.90
20380;DHT22;10349;48.666;8.948;2024-01-27T15:02:40;6.10;99.90
20380;DHT22;10349;48.666;8.948;2024-01-27T15:05:06;6.20;99.90
20380;DHT22;10349;48.666;8.948;2024-01-27T15:07:34;6.20;99.90
20380;DHT22;10349;48.666;8.948;2024-01-27T15:10:00;6.30;99.90
20380;DHT22;10349;48.666;8.948;2024-01-27T15:12:25;6.40;99.90
20380;DHT22;10349;48.666;8.948;2024-01-27T15:14:51;6.40;99.90
20380;DHT22;10349;48.666;8.948;2024-01-27T15:17:18;6.40;99.90
20380;DHT22;10349;48.666;8.948;2024-01-27T15:19:43;6.40;99.90
20380;DHT22;10349;48.666;8.948;2024-01-27T15:22:09;6.30;99.90
20380;DHT22;10349;48.666;8.948;2024-01-27T15:24:35;6.30;99.90
20380;DHT22;10349;48.666;8.948;2024-01-27T15:27:03;6.30;99.90
20380;DHT22;10349;48.666;8.948;2024-01-27T15:29:28;6.30;99.90
20380;DHT22;10349;48.666;8.948;2024-01-27T15:31:54;6.20;99.90
20380;DHT22;10349;48.666;8.948;2024-01-27T15:34:20;6.20;99.90
20380;DHT22;10349;48.666;8.948;2024-01-27T15:36:45;6.20;99.90